createdAt,value
2022-12-27T00:01:51.330Z,3.72
2022-12-27T00:04:17.820Z,3.75
2022-12-27T00:06:44.177Z,3.67
2022-12-27T00:09:10.710Z,3.60
2022-12-27T00:11:37.086Z,3.64
2022-12-27T00:14:05.588Z,3.77
2022-12-27T00:16:32.853Z,3.79
2022-12-27T00:18:59.866Z,3.70
2022-12-27T00:21:26.800Z,3.66
2022-12-27T00:23:55.309Z,3.62
2022-12-27T00:26:23.846Z,3.61
2022-12-27T00:28:50.812Z,3.51
2022-12-27T00:31:18.633Z,3.54
2022-12-27T00:33:47.160Z,3.55
2022-12-27T00:36:19.682Z,3.48
2022-12-27T00:38:46.866Z,3.43
2022-12-27T00:41:14.289Z,3.52
2022-12-27T00:43:41.172Z,3.40
2022-12-27T00:46:08.113Z,3.35
2022-12-27T00:48:34.950Z,3.41
2022-12-27T00:51:04.172Z,3.47
2022-12-27T00:53:31.573Z,3.50
2022-12-27T00:55:58.042Z,3.54
2022-12-27T00:58:25.113Z,3.50
2022-12-27T01:00:51.716Z,3.45
2022-12-27T01:06:56.911Z,3.47
2022-12-27T01:09:23.253Z,3.45
2022-12-27T01:11:49.599Z,3.44
2022-12-27T01:14:15.981Z,3.33
2022-12-27T01:16:42.445Z,3.24
2022-12-27T01:19:08.798Z,3.20
2022-12-27T01:21:35.447Z,3.22
2022-12-27T01:24:01.933Z,3.22
2022-12-27T01:26:28.341Z,3.04
2022-12-27T01:28:55.000Z,2.97
2022-12-27T01:31:24.678Z,3.00
2022-12-27T01:33:55.432Z,3.00
2022-12-27T01:36:23.454Z,2.94
2022-12-27T01:38:50.748Z,2.87
2022-12-27T01:41:42.086Z,2.89
2022-12-27T01:44:51.203Z,2.89
2022-12-27T01:47:36.224Z,2.86
2022-12-27T01:50:17.563Z,2.81
2022-12-27T01:52:53.509Z,2.82
2022-12-27T01:55:25.323Z,2.79
2022-12-27T01:57:55.509Z,2.78
2022-12-27T02:00:22.331Z,2.78
2022-12-27T02:02:50.056Z,2.68
2022-12-27T02:05:19.607Z,2.70
2022-12-27T02:08:19.836Z,2.60
2022-12-27T02:10:46.647Z,2.82
2022-12-27T02:13:14.972Z,2.83
2022-12-27T02:15:41.296Z,2.73
2022-12-27T02:18:07.781Z,2.71
2022-12-27T02:21:01.060Z,2.64
2022-12-27T02:24:04.413Z,2.59
2022-12-27T02:26:43.899Z,2.48
2022-12-27T02:29:39.798Z,2.54
2022-12-27T02:32:20.209Z,2.40
2022-12-27T02:34:57.293Z,2.39
2022-12-27T02:37:27.949Z,2.35
2022-12-27T02:39:56.930Z,2.38
2022-12-27T02:42:42.028Z,2.37
2022-12-27T02:45:38.556Z,2.41
2022-12-27T02:48:31.538Z,2.44
2022-12-27T02:51:37.148Z,2.41
2022-12-27T02:54:34.531Z,2.45
2022-12-27T02:57:29.741Z,2.40
2022-12-27T03:00:41.607Z,2.48
2022-12-27T03:03:32.709Z,2.44
2022-12-27T03:06:27.791Z,2.60
2022-12-27T03:09:03.122Z,2.48
2022-12-27T03:11:54.839Z,2.42
2022-12-27T03:14:46.759Z,2.36
2022-12-27T03:17:26.653Z,2.40
2022-12-27T03:20:38.333Z,2.44
2022-12-27T03:23:23.559Z,2.40
2022-12-27T03:25:52.835Z,2.41
2022-12-27T03:28:43.578Z,2.37
2022-12-27T03:31:40.859Z,2.40
2022-12-27T03:34:29.653Z,2.41
2022-12-27T03:37:17.212Z,2.37
2022-12-27T03:39:54.693Z,2.35
2022-12-27T03:42:44.838Z,2.26
2022-12-27T03:45:11.542Z,2.28
2022-12-27T03:47:54.848Z,2.31
2022-12-27T03:50:28.415Z,2.31
2022-12-27T03:52:59.961Z,2.25
2022-12-27T03:55:33.007Z,2.24
2022-12-27T03:58:00.001Z,2.19
2022-12-27T04:00:26.491Z,2.28
2022-12-27T04:02:52.971Z,2.25
2022-12-27T04:05:19.361Z,2.27
2022-12-27T04:08:04.433Z,2.33
2022-12-27T04:10:49.210Z,2.42
2022-12-27T04:13:34.051Z,2.35
2022-12-27T04:16:18.866Z,2.29
2022-12-27T04:19:03.954Z,2.37
2022-12-27T04:21:48.810Z,2.38
2022-12-27T04:24:33.553Z,2.28
2022-12-27T04:27:18.259Z,2.28
2022-12-27T04:30:03.156Z,2.18
2022-12-27T04:32:48.456Z,2.19
2022-12-27T04:35:14.877Z,2.18
2022-12-27T04:37:41.221Z,2.15
2022-12-27T04:40:26.786Z,2.02
2022-12-27T04:43:11.482Z,2.13
2022-12-27T04:45:56.244Z,2.21
2022-12-27T04:48:41.495Z,2.33
2022-12-27T04:51:27.751Z,2.42
2022-12-27T04:54:12.694Z,2.52
2022-12-27T04:56:39.049Z,2.51
2022-12-27T04:59:24.089Z,2.53
2022-12-27T05:02:06.021Z,2.51
2022-12-27T05:04:36.470Z,2.47
2022-12-27T05:07:24.617Z,2.40
2022-12-27T05:10:26.580Z,2.38
2022-12-27T05:13:11.592Z,2.29
2022-12-27T05:15:37.991Z,2.15
2022-12-27T05:18:05.481Z,2.16
2022-12-27T05:20:34.749Z,2.07
2022-12-27T05:23:19.702Z,1.89
2022-12-27T05:25:47.200Z,1.86
2022-12-27T05:28:13.570Z,1.76
2022-12-27T05:30:42.803Z,1.80
2022-12-27T05:33:09.223Z,1.74
2022-12-27T05:35:35.644Z,1.65
2022-12-27T05:38:02.932Z,1.63
2022-12-27T05:40:29.352Z,1.56
2022-12-27T05:42:59.279Z,1.56
2022-12-27T05:45:25.665Z,1.55
2022-12-27T05:47:52.922Z,1.45
2022-12-27T05:50:19.470Z,1.40
2022-12-27T05:52:45.793Z,1.40
2022-12-27T05:55:12.817Z,1.41
2022-12-27T05:57:39.160Z,1.34
2022-12-27T06:00:06.675Z,1.38
2022-12-27T06:02:33.251Z,1.29
2022-12-27T06:04:59.674Z,1.33
2022-12-27T06:07:26.028Z,1.36
2022-12-27T06:09:52.369Z,1.23
2022-12-27T06:12:18.693Z,1.28
2022-12-27T06:14:45.026Z,1.36
2022-12-27T06:17:11.319Z,1.33
2022-12-27T06:19:37.622Z,1.35
2022-12-27T06:22:03.939Z,1.43
2022-12-27T06:24:30.515Z,1.41
2022-12-27T06:26:56.839Z,1.47
2022-12-27T06:29:23.121Z,1.41
2022-12-27T06:31:49.518Z,1.31
2022-12-27T06:34:15.980Z,1.39
2022-12-27T06:36:42.397Z,1.40
2022-12-27T06:39:08.797Z,1.40
2022-12-27T06:41:35.141Z,1.44
2022-12-27T06:44:01.485Z,1.36
2022-12-27T06:46:27.918Z,1.37
2022-12-27T06:48:54.274Z,1.36
2022-12-27T06:51:21.146Z,1.38
2022-12-27T06:53:48.047Z,1.52
2022-12-27T06:56:17.934Z,1.55
2022-12-27T06:58:45.547Z,1.57
2022-12-27T07:01:17.469Z,1.59
2022-12-27T07:03:43.882Z,1.50
2022-12-27T07:06:13.357Z,1.61
2022-12-27T07:08:40.059Z,1.54
2022-12-27T07:11:09.645Z,1.61
2022-12-27T07:13:41.782Z,1.58
2022-12-27T07:16:09.863Z,1.61
2022-12-27T07:18:36.276Z,1.47
2022-12-27T07:21:11.884Z,1.62
2022-12-27T07:23:38.588Z,1.59
2022-12-27T07:26:11.020Z,1.60
2022-12-27T07:28:37.969Z,1.58
2022-12-27T07:31:14.124Z,1.61
2022-12-27T07:33:41.396Z,1.61
2022-12-27T07:36:12.606Z,1.74
2022-12-27T07:38:38.975Z,1.70
2022-12-27T07:41:05.716Z,1.64
2022-12-27T07:43:33.780Z,1.59
2022-12-27T07:46:09.788Z,1.68
2022-12-27T07:48:37.084Z,1.69
2022-12-27T07:51:03.926Z,1.77
2022-12-27T07:53:31.057Z,1.69
2022-12-27T07:55:57.635Z,1.76
2022-12-27T07:58:24.625Z,1.78
2022-12-27T08:00:52.308Z,1.76
2022-12-27T08:03:19.532Z,1.76
2022-12-27T08:08:44.434Z,1.87
2022-12-27T08:11:10.895Z,2.04
2022-12-27T08:13:37.422Z,1.97
2022-12-27T08:16:04.562Z,2.02
2022-12-27T08:18:31.138Z,2.01
2022-12-27T08:20:57.436Z,2.02
2022-12-27T08:23:23.882Z,2.02
2022-12-27T08:25:50.280Z,2.07
2022-12-27T08:28:18.353Z,2.05
2022-12-27T08:30:45.713Z,1.98
2022-12-27T08:33:12.589Z,1.94
2022-12-27T08:35:56.069Z,1.87
2022-12-27T08:38:22.573Z,1.82
2022-12-27T08:40:48.965Z,1.74
2022-12-27T08:43:15.425Z,1.66
2022-12-27T08:45:41.959Z,1.55
2022-12-27T08:48:08.697Z,1.51
2022-12-27T08:50:35.200Z,1.50
2022-12-27T08:53:03.509Z,1.41
2022-12-27T08:55:30.598Z,1.50
2022-12-27T08:58:01.963Z,1.46
2022-12-27T09:00:29.540Z,1.53
2022-12-27T09:02:56.357Z,1.58
2022-12-27T09:05:23.877Z,1.68
2022-12-27T09:07:50.225Z,1.62
2022-12-27T09:10:17.547Z,1.74
2022-12-27T09:12:45.481Z,1.96
2022-12-27T09:15:12.163Z,2.04
2022-12-27T09:17:38.765Z,2.28
2022-12-27T09:20:06.200Z,2.42
2022-12-27T09:22:32.522Z,2.49
2022-12-27T09:24:59.088Z,2.67
2022-12-27T09:27:26.009Z,2.77
2022-12-27T09:29:52.386Z,2.93
2022-12-27T09:32:18.791Z,3.05
2022-12-27T09:34:45.138Z,3.14
2022-12-27T09:37:11.886Z,3.18
2022-12-27T09:39:38.188Z,3.28
2022-12-27T09:45:21.991Z,3.45
2022-12-27T09:47:57.068Z,3.52
2022-12-27T09:50:32.237Z,3.47
2022-12-27T09:53:17.068Z,3.45
2022-12-27T09:55:49.997Z,3.35
2022-12-27T09:58:32.110Z,3.49
2022-12-27T10:00:59.047Z,3.47
2022-12-27T10:03:27.326Z,3.46
2022-12-27T10:06:06.657Z,3.42
2022-12-27T10:08:43.369Z,3.44
2022-12-27T10:11:42.230Z,3.51
2022-12-27T10:14:33.689Z,3.63
2022-12-27T10:17:32.568Z,3.70
2022-12-27T10:20:02.142Z,3.75
2022-12-27T10:22:40.715Z,3.78
2022-12-27T10:25:13.243Z,3.84
2022-12-27T10:27:41.464Z,3.84
2022-12-27T10:30:28.664Z,3.91
2022-12-27T10:32:55.054Z,3.91
2022-12-27T10:35:22.562Z,3.94
2022-12-27T10:37:49.902Z,3.96
2022-12-27T10:40:22.583Z,4.06
2022-12-27T10:43:02.698Z,4.21
2022-12-27T10:45:39.402Z,4.37
2022-12-27T10:48:22.560Z,4.61
2022-12-27T10:51:01.429Z,4.93
2022-12-27T10:53:46.135Z,5.02
2022-12-27T10:56:26.684Z,5.34
2022-12-27T10:58:59.076Z,5.28
2022-12-27T11:01:30.304Z,5.42
2022-12-27T11:04:19.804Z,5.78
2022-12-27T11:07:08.365Z,6.15
2022-12-27T11:09:35.507Z,6.04
2022-12-27T11:12:15.433Z,6.00
2022-12-27T11:15:10.315Z,5.97
2022-12-27T11:17:40.464Z,5.74
2022-12-27T11:20:26.897Z,5.82
2022-12-27T11:22:53.166Z,5.96
2022-12-27T11:25:20.234Z,6.08
2022-12-27T11:27:52.586Z,6.12
2022-12-27T11:30:26.821Z,6.38
2022-12-27T11:32:53.560Z,6.63
2022-12-27T11:35:22.420Z,6.61
2022-12-27T11:37:50.280Z,6.74
2022-12-27T11:40:30.470Z,6.81
2022-12-27T11:43:27.397Z,7.18
2022-12-27T11:45:55.698Z,7.59
2022-12-27T11:48:33.433Z,7.46
2022-12-27T11:51:11.771Z,7.58
2022-12-27T11:54:19.961Z,7.83
2022-12-27T11:57:11.213Z,7.84
2022-12-27T11:59:56.960Z,7.66
2022-12-27T12:02:48.677Z,7.63
2022-12-27T12:05:43.082Z,7.79
2022-12-27T12:08:45.036Z,7.81
2022-12-27T12:11:25.358Z,8.01
2022-12-27T12:14:10.285Z,7.62
2022-12-27T12:16:51.463Z,7.26
2022-12-27T12:19:20.360Z,6.78
2022-12-27T12:22:09.835Z,7.40
2022-12-27T12:24:50.997Z,7.76
2022-12-27T12:28:30.381Z,7.76
2022-12-27T12:31:18.949Z,7.92
2022-12-27T12:34:04.786Z,8.08
2022-12-27T12:36:36.990Z,7.53
2022-12-27T12:39:15.659Z,7.54
2022-12-27T12:42:15.047Z,7.64
2022-12-27T12:44:47.172Z,7.54
2022-12-27T12:47:47.943Z,7.54
2022-12-27T12:50:52.699Z,7.20
2022-12-27T12:53:29.322Z,6.94
2022-12-27T12:56:02.976Z,6.63
2022-12-27T12:58:41.639Z,6.47
2022-12-27T13:01:50.669Z,6.30
2022-12-27T13:04:47.874Z,6.22
2022-12-27T13:07:41.163Z,6.12
2022-12-27T13:10:30.670Z,6.07
2022-12-27T13:13:12.389Z,5.93
2022-12-27T13:16:11.647Z,5.97
2022-12-27T13:18:53.079Z,5.90
2022-12-27T13:21:38.213Z,5.81
2022-12-27T13:24:30.044Z,5.86
2022-12-27T13:27:16.208Z,5.87
2022-12-27T13:29:52.610Z,5.86
2022-12-27T13:32:37.693Z,5.87
2022-12-27T13:35:29.389Z,5.86
2022-12-27T13:38:14.210Z,5.88
2022-12-27T13:41:02.170Z,5.92
2022-12-27T13:44:07.386Z,5.98
2022-12-27T13:46:56.937Z,5.96
2022-12-27T13:50:00.181Z,5.98
2022-12-27T13:52:46.622Z,5.96
2022-12-27T13:55:23.782Z,5.97
2022-12-27T13:58:27.791Z,5.95
2022-12-27T14:01:25.068Z,5.94
2022-12-27T14:04:15.899Z,5.96
2022-12-27T14:07:09.805Z,5.93
2022-12-27T14:10:08.614Z,5.88
2022-12-27T14:12:53.929Z,5.86
2022-12-27T14:15:29.862Z,5.80
2022-12-27T14:18:03.859Z,5.80
2022-12-27T14:20:43.618Z,5.78
2022-12-27T14:23:33.825Z,5.77
2022-12-27T14:26:25.206Z,5.72
2022-12-27T14:29:38.027Z,5.63
2022-12-27T14:32:32.081Z,5.69
2022-12-27T14:35:16.745Z,5.61
2022-12-27T14:38:20.248Z,5.59
2022-12-27T14:41:17.413Z,5.47
2022-12-27T14:44:15.462Z,5.44
2022-12-27T14:47:21.142Z,5.36
2022-12-27T14:50:34.873Z,5.33
2022-12-27T14:53:30.214Z,5.28
2022-12-27T14:56:03.517Z,5.25
2022-12-27T14:58:43.669Z,5.22
2022-12-27T15:01:25.387Z,5.22
2022-12-27T15:03:58.681Z,5.01
2022-12-27T15:06:33.897Z,5.04
2022-12-27T15:09:10.973Z,5.01
2022-12-27T15:12:12.496Z,4.94
2022-12-27T15:15:03.216Z,4.85
2022-12-27T15:17:48.409Z,4.86
2022-12-27T15:20:35.606Z,4.76
2022-12-27T15:23:25.861Z,4.71
2022-12-27T15:26:08.408Z,4.69
2022-12-27T15:28:45.703Z,4.69
2022-12-27T15:31:48.312Z,4.57
2022-12-27T15:34:40.856Z,4.53
2022-12-27T15:37:45.773Z,4.43
2022-12-27T15:40:31.921Z,4.36
2022-12-27T15:43:13.104Z,4.34
2022-12-27T15:45:53.202Z,4.30
2022-12-27T15:49:21.834Z,4.22
2022-12-27T15:52:17.242Z,4.15
2022-12-27T15:55:13.791Z,4.13
2022-12-27T15:58:13.216Z,4.05
2022-12-27T16:00:40.452Z,3.97
2022-12-27T16:03:35.937Z,3.94
2022-12-27T16:06:03.810Z,4.02
2022-12-27T16:08:38.707Z,4.06
2022-12-27T16:11:12.910Z,4.12
2022-12-27T16:13:48.181Z,4.15
2022-12-27T16:16:26.608Z,4.12
2022-12-27T16:19:11.190Z,4.19
2022-12-27T16:21:41.834Z,4.12
2022-12-27T16:24:16.547Z,4.15
2022-12-27T16:27:27.150Z,4.17
2022-12-27T16:29:55.603Z,4.19
2022-12-27T16:32:25.172Z,4.19
2022-12-27T16:34:55.392Z,4.19
2022-12-27T16:37:26.280Z,4.25
2022-12-27T16:39:58.457Z,4.26
2022-12-27T16:42:49.236Z,4.21
2022-12-27T16:45:38.741Z,4.21
2022-12-27T16:48:27.241Z,4.22
2022-12-27T16:51:29.364Z,4.18
2022-12-27T16:54:16.613Z,4.13
2022-12-27T16:56:48.134Z,4.09
2022-12-27T16:59:53.224Z,4.08
2022-12-27T17:02:36.804Z,4.10
2022-12-27T17:05:04.720Z,4.10
2022-12-27T17:07:57.229Z,4.13
2022-12-27T17:10:44.403Z,4.12
2022-12-27T17:13:35.028Z,4.16
2022-12-27T17:16:09.053Z,4.13
2022-12-27T17:18:43.478Z,4.11
2022-12-27T17:21:18.833Z,4.12
2022-12-27T17:23:48.221Z,4.09
2022-12-27T17:26:39.135Z,4.12
2022-12-27T17:29:29.949Z,4.09
2022-12-27T17:32:26.627Z,4.08
2022-12-27T17:34:55.573Z,4.15
2022-12-27T17:37:27.929Z,4.20
2022-12-27T17:40:24.622Z,4.32
2022-12-27T17:43:34.961Z,4.37
2022-12-27T17:46:36.427Z,4.27
2022-12-27T17:49:05.758Z,4.25
2022-12-27T17:51:34.600Z,4.21
2022-12-27T17:54:39.916Z,4.23
2022-12-27T17:57:29.929Z,4.27
2022-12-27T17:59:56.408Z,4.20
2022-12-27T18:02:32.004Z,4.19
2022-12-27T18:05:03.730Z,4.21
2022-12-27T18:07:32.509Z,4.25
2022-12-27T18:10:05.925Z,4.29
2022-12-27T18:12:40.800Z,4.30
2022-12-27T18:15:21.098Z,4.34
2022-12-27T18:17:51.628Z,4.31
2022-12-27T18:20:27.322Z,4.30
2022-12-27T18:23:02.641Z,4.42
2022-12-27T18:25:33.501Z,4.41
2022-12-27T18:28:20.129Z,4.43
2022-12-27T18:31:02.711Z,4.43
2022-12-27T18:33:40.212Z,4.41
2022-12-27T18:36:09.015Z,4.39
2022-12-27T18:38:40.798Z,4.37
2022-12-27T18:41:18.965Z,4.42
2022-12-27T18:43:52.901Z,4.36
2022-12-27T18:46:29.261Z,4.37
2022-12-27T18:48:56.276Z,4.33
2022-12-27T18:51:30.270Z,4.33
2022-12-27T18:53:56.673Z,4.27
2022-12-27T18:56:29.250Z,4.36
2022-12-27T18:59:01.708Z,4.36
2022-12-27T19:01:37.016Z,4.28
2022-12-27T19:04:18.733Z,4.30
2022-12-27T19:07:07.056Z,4.28
2022-12-27T19:09:50.580Z,4.27
2022-12-27T19:12:30.234Z,4.16
2022-12-27T19:14:56.900Z,4.20
2022-12-27T19:17:31.638Z,4.14
2022-12-27T19:20:04.141Z,4.06
2022-12-27T19:22:36.304Z,4.04
2022-12-27T19:25:07.255Z,4.03
2022-12-27T19:27:33.688Z,3.98
2022-12-27T19:30:00.058Z,3.91
2022-12-27T19:32:33.160Z,3.73
2022-12-27T19:35:02.579Z,3.70
2022-12-27T19:37:31.570Z,3.68
2022-12-27T19:39:58.518Z,3.59
2022-12-27T19:42:31.103Z,3.61
2022-12-27T19:44:57.403Z,3.55
2022-12-27T19:47:24.023Z,3.61
2022-12-27T19:49:50.375Z,3.65
2022-12-27T19:52:20.605Z,3.52
2022-12-27T19:54:48.293Z,3.39
2022-12-27T19:57:14.729Z,3.45
2022-12-27T19:59:41.334Z,3.33
2022-12-27T20:02:08.584Z,3.31
2022-12-27T20:04:35.161Z,3.37
2022-12-27T20:07:02.340Z,3.23
2022-12-27T20:09:28.984Z,3.19
2022-12-27T20:11:55.348Z,3.13
2022-12-27T20:14:21.833Z,3.05
2022-12-27T20:16:48.442Z,3.05
2022-12-27T20:19:17.750Z,3.03
2022-12-27T20:21:44.204Z,3.00
2022-12-27T20:24:14.530Z,2.82
2022-12-27T20:26:42.182Z,2.88
2022-12-27T20:29:09.023Z,2.84
2022-12-27T20:31:42.184Z,2.80
2022-12-27T20:34:10.940Z,2.70
2022-12-27T20:36:37.314Z,2.66
2022-12-27T20:39:03.727Z,2.66
2022-12-27T20:41:30.127Z,2.69
2022-12-27T20:43:57.932Z,2.67
2022-12-27T20:46:24.976Z,2.65
2022-12-27T20:48:53.585Z,2.49
2022-12-27T20:51:22.837Z,2.62
2022-12-27T20:53:55.035Z,2.53
2022-12-27T20:56:21.472Z,2.45
2022-12-27T20:58:47.833Z,2.41
2022-12-27T21:01:17.939Z,2.34
2022-12-27T21:03:45.190Z,2.32
2022-12-27T21:06:18.767Z,2.33
2022-12-27T21:08:50.637Z,2.28
2022-12-27T21:11:26.881Z,2.19
2022-12-27T21:13:53.286Z,2.17
2022-12-27T21:16:25.779Z,2.18
2022-12-27T21:18:53.029Z,2.07
2022-12-27T21:21:21.915Z,2.10
2022-12-27T21:23:50.161Z,2.16
2022-12-27T21:26:19.837Z,2.16
2022-12-27T21:28:46.874Z,2.22
2022-12-27T21:31:14.577Z,2.11
2022-12-27T21:33:41.037Z,2.14
2022-12-27T21:36:21.567Z,2.07
2022-12-27T21:38:48.631Z,2.07
2022-12-27T21:41:16.341Z,2.06
2022-12-27T21:43:43.972Z,2.01
2022-12-27T21:46:21.931Z,2.02
2022-12-27T21:48:54.741Z,2.02
2022-12-27T21:51:21.184Z,2.02
2022-12-27T21:53:47.718Z,2.03
2022-12-27T21:56:15.349Z,2.03
2022-12-27T21:58:42.797Z,2.02
2022-12-27T22:01:13.335Z,1.88
2022-12-27T22:03:42.235Z,1.88
2022-12-27T22:06:09.989Z,1.89
2022-12-27T22:08:36.378Z,1.96
2022-12-27T22:11:02.655Z,1.90
2022-12-27T22:13:28.978Z,2.00
2022-12-27T22:15:57.207Z,2.01
2022-12-27T22:18:24.006Z,2.01
2022-12-27T22:20:50.698Z,1.99
2022-12-27T22:23:17.284Z,1.98
2022-12-27T22:25:44.625Z,1.94
2022-12-27T22:28:11.417Z,1.92
2022-12-27T22:30:39.927Z,1.89
2022-12-27T22:33:07.323Z,1.87
2022-12-27T22:35:33.870Z,1.97
2022-12-27T22:38:00.301Z,2.00
2022-12-27T22:40:40.844Z,1.90
2022-12-27T22:43:12.995Z,1.89
2022-12-27T22:45:42.579Z,1.83
2022-12-27T22:48:09.200Z,1.84
2022-12-27T22:50:37.471Z,1.85
2022-12-27T22:53:03.840Z,1.81
2022-12-27T22:55:30.204Z,1.79
2022-12-27T22:57:56.585Z,1.78
2022-12-27T23:00:23.017Z,1.74
2022-12-27T23:02:49.412Z,1.74
2022-12-27T23:05:15.746Z,1.72
2022-12-27T23:08:04.644Z,1.75
2022-12-27T23:10:28.460Z,1.74
2022-12-27T23:12:56.719Z,1.80
2022-12-27T23:15:23.069Z,1.73
2022-12-27T23:17:49.417Z,1.63
2022-12-27T23:20:15.791Z,1.55
2022-12-27T23:22:42.125Z,1.58
2022-12-27T23:25:08.684Z,1.59
2022-12-27T23:27:35.012Z,1.59
2022-12-27T23:30:01.348Z,1.51
2022-12-27T23:32:27.730Z,1.44
2022-12-27T23:34:54.064Z,1.39
2022-12-27T23:37:20.382Z,1.36
2022-12-27T23:39:46.675Z,1.40
2022-12-27T23:42:12.978Z,1.42
2022-12-27T23:44:39.378Z,1.45
2022-12-27T23:47:06.147Z,1.54
2022-12-27T23:49:33.167Z,1.61
2022-12-27T23:51:59.638Z,1.67
2022-12-27T23:54:25.997Z,1.75
2022-12-27T23:56:52.339Z,1.76
2022-12-27T23:59:18.728Z,1.84
